sensor_id;sensor_type;location;lat;lon;timestamp;P1;durP1;ratioP1;P2;durP2;ratioP2
58898;SDS011;44680;48.342;7.856;2022-09-03T00:00:55;8.07;;;3.30;;
58898;SDS011;44680;48.342;7.856;2022-09-03T00:06:13;5.90;;;3.50;;
58898;SDS011;44680;48.342;7.856;2022-09-03T00:08:46;7.95;;;3.38;;
58898;SDS011;44680;48.342;7.856;2022-09-03T00:13:50;7.43;;;3.60;;
58898;SDS011;44680;48.342;7.856;2022-09-03T00:16:22;4.75;;;3.35;;
58898;SDS011;44680;48.342;7.856;2022-09-03T00:18:57;4.63;;;3.20;;
58898;SDS011;44680;48.342;7.856;2022-09-03T00:21:40;3.60;;;3.30;;
58898;SDS011;44680;48.342;7.856;2022-09-03T00:24:25;4.65;;;3.45;;
58898;SDS011;44680;48.342;7.856;2022-09-03T00:26:56;6.43;;;3.53;;
58898;SDS011;44680;48.342;7.856;2022-09-03T00:29:31;4.40;;;3.40;;
58898;SDS011;44680;48.342;7.856;2022-09-03T00:32:04;5.72;;;3.60;;
58898;SDS011;44680;48.342;7.856;2022-09-03T00:34:34;4.95;;;3.50;;
58898;SDS011;44680;48.342;7.856;2022-09-03T00:37:03;6.88;;;3.30;;
58898;SDS011;44680;48.342;7.856;2022-09-03T00:39:29;8.15;;;3.50;;
58898;SDS011;44680;48.342;7.856;2022-09-03T00:44:56;4.32;;;3.05;;
58898;SDS011;44680;48.342;7.856;2022-09-03T00:47:47;4.38;;;3.38;;
58898;SDS011;44680;48.342;7.856;2022-09-03T01:07:31;7.18;;;3.30;;
58898;SDS011;44680;48.342;7.856;2022-09-03T01:29:35;4.05;;;3.67;;
58898;SDS011;44680;48.342;7.856;2022-09-03T01:32:08;3.83;;;3.53;;
58898;SDS011;44680;48.342;7.856;2022-09-03T01:40:23;4.35;;;3.30;;
58898;SDS011;44680;48.342;7.856;2022-09-03T01:43:30;3.95;;;3.50;;
58898;SDS011;44680;48.342;7.856;2022-09-03T01:46:03;5.32;;;3.40;;
58898;SDS011;44680;48.342;7.856;2022-09-03T01:48:44;6.13;;;3.80;;
58898;SDS011;44680;48.342;7.856;2022-09-03T01:51:23;4.47;;;3.88;;
58898;SDS011;44680;48.342;7.856;2022-09-03T01:59:40;3.67;;;3.38;;
58898;SDS011;44680;48.342;7.856;2022-09-03T02:02:14;6.45;;;3.50;;
58898;SDS011;44680;48.342;7.856;2022-09-03T02:07:33;3.67;;;3.38;;
58898;SDS011;44680;48.342;7.856;2022-09-03T02:10:01;3.75;;;3.45;;
58898;SDS011;44680;48.342;7.856;2022-09-03T02:12:29;3.80;;;3.50;;
58898;SDS011;44680;48.342;7.856;2022-09-03T02:14:57;5.05;;;3.63;;
58898;SDS011;44680;48.342;7.856;2022-09-03T02:17:30;4.03;;;3.60;;
58898;SDS011;44680;48.342;7.856;2022-09-03T02:19:57;4.95;;;3.67;;
58898;SDS011;44680;48.342;7.856;2022-09-03T02:22:22;3.80;;;3.50;;
58898;SDS011;44680;48.342;7.856;2022-09-03T02:24:48;3.80;;;3.47;;
58898;SDS011;44680;48.342;7.856;2022-09-03T02:27:13;6.15;;;3.47;;
58898;SDS011;44680;48.342;7.856;2022-09-03T02:29:39;4.32;;;3.50;;
58898;SDS011;44680;48.342;7.856;2022-09-03T02:32:04;5.45;;;3.53;;
58898;SDS011;44680;48.342;7.856;2022-09-03T02:34:30;5.38;;;3.60;;
58898;SDS011;44680;48.342;7.856;2022-09-03T02:36:55;3.70;;;3.33;;
58898;SDS011;44680;48.342;7.856;2022-09-03T02:39:20;3.78;;;3.40;;
58898;SDS011;44680;48.342;7.856;2022-09-03T02:41:49;5.78;;;3.95;;
58898;SDS011;44680;48.342;7.856;2022-09-03T02:44:17;5.55;;;3.58;;
58898;SDS011;44680;48.342;7.856;2022-09-03T02:47:04;3.83;;;3.50;;
58898;SDS011;44680;48.342;7.856;2022-09-03T02:49:31;7.47;;;3.78;;
58898;SDS011;44680;48.342;7.856;2022-09-03T02:52:00;3.55;;;3.25;;
58898;SDS011;44680;48.342;7.856;2022-09-03T02:54:31;8.60;;;4.53;;
58898;SDS011;44680;48.342;7.856;2022-09-03T02:56:59;5.00;;;3.65;;
58898;SDS011;44680;48.342;7.856;2022-09-03T02:59:25;4.90;;;3.80;;
58898;SDS011;44680;48.342;7.856;2022-09-03T03:01:52;4.95;;;4.03;;
58898;SDS011;44680;48.342;7.856;2022-09-03T03:04:18;7.25;;;4.25;;
58898;SDS011;44680;48.342;7.856;2022-09-03T03:06:43;6.10;;;3.90;;
58898;SDS011;44680;48.342;7.856;2022-09-03T03:09:09;5.93;;;4.07;;
58898;SDS011;44680;48.342;7.856;2022-09-03T03:11:34;6.28;;;3.85;;
58898;SDS011;44680;48.342;7.856;2022-09-03T03:14:01;6.03;;;3.97;;
58898;SDS011;44680;48.342;7.856;2022-09-03T03:16:26;6.70;;;3.90;;
58898;SDS011;44680;48.342;7.856;2022-09-03T03:18:52;4.85;;;4.05;;
58898;SDS011;44680;48.342;7.856;2022-09-03T03:21:17;6.47;;;3.85;;
58898;SDS011;44680;48.342;7.856;2022-09-03T03:23:43;4.35;;;3.95;;
58898;SDS011;44680;48.342;7.856;2022-09-03T03:26:12;7.03;;;4.15;;
58898;SDS011;44680;48.342;7.856;2022-09-03T03:28:39;4.20;;;3.80;;
58898;SDS011;44680;48.342;7.856;2022-09-03T03:31:13;4.32;;;3.92;;
58898;SDS011;44680;48.342;7.856;2022-09-03T03:33:43;6.22;;;3.72;;
58898;SDS011;44680;48.342;7.856;2022-09-03T03:36:09;7.63;;;4.07;;
58898;SDS011;44680;48.342;7.856;2022-09-03T03:38:37;5.82;;;3.72;;
58898;SDS011;44680;48.342;7.856;2022-09-03T03:41:10;4.43;;;3.95;;
58898;SDS011;44680;48.342;7.856;2022-09-03T03:43:36;4.13;;;3.65;;
58898;SDS011;44680;48.342;7.856;2022-09-03T03:46:01;5.30;;;3.88;;
58898;SDS011;44680;48.342;7.856;2022-09-03T03:48:27;5.50;;;4.00;;
58898;SDS011;44680;48.342;7.856;2022-09-03T03:50:52;6.78;;;4.10;;
58898;SDS011;44680;48.342;7.856;2022-09-03T03:53:17;5.05;;;4.22;;
58898;SDS011;44680;48.342;7.856;2022-09-03T03:55:43;6.97;;;3.90;;
58898;SDS011;44680;48.342;7.856;2022-09-03T03:58:18;4.40;;;4.00;;
58898;SDS011;44680;48.342;7.856;2022-09-03T04:00:43;5.63;;;4.20;;
58898;SDS011;44680;48.342;7.856;2022-09-03T04:03:10;7.68;;;4.53;;
58898;SDS011;44680;48.342;7.856;2022-09-03T04:05:35;4.72;;;3.95;;
58898;SDS011;44680;48.342;7.856;2022-09-03T04:08:00;7.38;;;4.40;;
58898;SDS011;44680;48.342;7.856;2022-09-03T04:10:26;7.03;;;3.80;;
58898;SDS011;44680;48.342;7.856;2022-09-03T04:12:52;5.55;;;4.00;;
58898;SDS011;44680;48.342;7.856;2022-09-03T04:15:18;7.10;;;4.38;;
58898;SDS011;44680;48.342;7.856;2022-09-03T04:17:43;7.18;;;4.03;;
58898;SDS011;44680;48.342;7.856;2022-09-03T04:20:09;4.85;;;4.15;;
58898;SDS011;44680;48.342;7.856;2022-09-03T04:22:34;4.18;;;3.78;;
58898;SDS011;44680;48.342;7.856;2022-09-03T04:24:59;6.43;;;4.10;;
58898;SDS011;44680;48.342;7.856;2022-09-03T04:27:24;7.55;;;4.18;;
58898;SDS011;44680;48.342;7.856;2022-09-03T04:29:50;8.38;;;4.43;;
58898;SDS011;44680;48.342;7.856;2022-09-03T04:32:15;6.30;;;3.90;;
58898;SDS011;44680;48.342;7.856;2022-09-03T04:34:59;5.93;;;4.00;;
58898;SDS011;44680;48.342;7.856;2022-09-03T04:37:24;6.35;;;3.88;;
58898;SDS011;44680;48.342;7.856;2022-09-03T04:39:49;6.68;;;3.95;;
58898;SDS011;44680;48.342;7.856;2022-09-03T04:42:15;4.05;;;3.65;;
58898;SDS011;44680;48.342;7.856;2022-09-03T04:44:40;5.80;;;4.30;;
58898;SDS011;44680;48.342;7.856;2022-09-03T04:47:05;5.70;;;4.05;;
58898;SDS011;44680;48.342;7.856;2022-09-03T04:49:31;7.13;;;4.32;;
58898;SDS011;44680;48.342;7.856;2022-09-03T04:51:56;5.28;;;3.97;;
58898;SDS011;44680;48.342;7.856;2022-09-03T04:54:21;5.55;;;4.18;;
58898;SDS011;44680;48.342;7.856;2022-09-03T04:56:46;4.72;;;4.00;;
58898;SDS011;44680;48.342;7.856;2022-09-03T04:59:12;4.53;;;4.13;;
58898;SDS011;44680;48.342;7.856;2022-09-03T05:01:37;4.20;;;3.80;;
58898;SDS011;44680;48.342;7.856;2022-09-03T05:04:04;8.27;;;3.92;;
58898;SDS011;44680;48.342;7.856;2022-09-03T05:06:30;8.35;;;4.35;;
58898;SDS011;44680;48.342;7.856;2022-09-03T05:08:56;5.85;;;4.03;;
58898;SDS011;44680;48.342;7.856;2022-09-03T05:11:23;4.32;;;3.90;;
58898;SDS011;44680;48.342;7.856;2022-09-03T05:13:49;6.55;;;4.20;;
58898;SDS011;44680;48.342;7.856;2022-09-03T05:16:16;5.88;;;4.25;;
58898;SDS011;44680;48.342;7.856;2022-09-03T05:18:42;5.28;;;3.80;;
58898;SDS011;44680;48.342;7.856;2022-09-03T05:21:09;5.47;;;3.63;;
58898;SDS011;44680;48.342;7.856;2022-09-03T05:23:36;6.70;;;4.20;;
58898;SDS011;44680;48.342;7.856;2022-09-03T05:26:05;5.28;;;4.22;;
58898;SDS011;44680;48.342;7.856;2022-09-03T05:28:35;4.78;;;3.92;;
58898;SDS011;44680;48.342;7.856;2022-09-03T05:31:05;5.72;;;3.95;;
58898;SDS011;44680;48.342;7.856;2022-09-03T05:33:32;4.40;;;4.00;;
58898;SDS011;44680;48.342;7.856;2022-09-03T05:36:06;4.43;;;3.80;;
58898;SDS011;44680;48.342;7.856;2022-09-03T05:38:34;6.63;;;4.20;;
58898;SDS011;44680;48.342;7.856;2022-09-03T05:40:59;4.30;;;3.78;;
58898;SDS011;44680;48.342;7.856;2022-09-03T05:43:26;4.43;;;3.92;;
58898;SDS011;44680;48.342;7.856;2022-09-03T05:45:56;4.32;;;3.70;;
58898;SDS011;44680;48.342;7.856;2022-09-03T05:48:42;4.30;;;3.90;;
58898;SDS011;44680;48.342;7.856;2022-09-03T05:51:12;5.03;;;4.20;;
58898;SDS011;44680;48.342;7.856;2022-09-03T05:53:40;4.35;;;3.95;;
58898;SDS011;44680;48.342;7.856;2022-09-03T05:56:07;4.30;;;3.90;;
58898;SDS011;44680;48.342;7.856;2022-09-03T05:58:40;4.30;;;3.85;;
58898;SDS011;44680;48.342;7.856;2022-09-03T06:01:08;5.18;;;3.80;;
58898;SDS011;44680;48.342;7.856;2022-09-03T06:03:41;7.93;;;3.90;;
58898;SDS011;44680;48.342;7.856;2022-09-03T06:06:07;4.28;;;3.80;;
58898;SDS011;44680;48.342;7.856;2022-09-03T06:08:34;4.07;;;3.70;;
58898;SDS011;44680;48.342;7.856;2022-09-03T06:11:00;6.00;;;4.00;;
58898;SDS011;44680;48.342;7.856;2022-09-03T06:13:27;5.45;;;4.00;;
58898;SDS011;44680;48.342;7.856;2022-09-03T06:15:57;6.50;;;4.00;;
58898;SDS011;44680;48.342;7.856;2022-09-03T06:18:23;5.95;;;4.22;;
58898;SDS011;44680;48.342;7.856;2022-09-03T06:20:53;4.88;;;3.72;;
58898;SDS011;44680;48.342;7.856;2022-09-03T06:23:22;5.63;;;4.05;;
58898;SDS011;44680;48.342;7.856;2022-09-03T06:25:48;4.47;;;4.07;;
58898;SDS011;44680;48.342;7.856;2022-09-03T06:28:30;5.18;;;4.35;;
58898;SDS011;44680;48.342;7.856;2022-09-03T06:30:58;9.85;;;5.45;;
58898;SDS011;44680;48.342;7.856;2022-09-03T06:33:23;7.70;;;5.10;;
58898;SDS011;44680;48.342;7.856;2022-09-03T06:35:51;16.90;;;7.63;;
58898;SDS011;44680;48.342;7.856;2022-09-03T06:38:21;16.08;;;7.90;;
58898;SDS011;44680;48.342;7.856;2022-09-03T06:40:50;16.70;;;7.13;;
58898;SDS011;44680;48.342;7.856;2022-09-03T06:43:17;7.22;;;5.28;;
58898;SDS011;44680;48.342;7.856;2022-09-03T06:45:42;5.90;;;4.72;;
58898;SDS011;44680;48.342;7.856;2022-09-03T06:48:07;6.35;;;4.35;;
58898;SDS011;44680;48.342;7.856;2022-09-03T06:50:33;8.30;;;4.40;;
58898;SDS011;44680;48.342;7.856;2022-09-03T06:52:58;4.07;;;3.67;;
58898;SDS011;44680;48.342;7.856;2022-09-03T06:55:23;6.30;;;4.13;;
58898;SDS011;44680;48.342;7.856;2022-09-03T06:57:48;4.80;;;4.03;;
58898;SDS011;44680;48.342;7.856;2022-09-03T07:00:16;5.40;;;4.18;;
58898;SDS011;44680;48.342;7.856;2022-09-03T07:02:42;5.03;;;4.07;;
58898;SDS011;44680;48.342;7.856;2022-09-03T07:05:09;4.53;;;4.07;;
58898;SDS011;44680;48.342;7.856;2022-09-03T07:07:34;4.65;;;3.78;;
58898;SDS011;44680;48.342;7.856;2022-09-03T07:09:59;4.80;;;3.60;;
58898;SDS011;44680;48.342;7.856;2022-09-03T07:12:25;5.85;;;3.95;;
58898;SDS011;44680;48.342;7.856;2022-09-03T07:14:51;5.15;;;4.10;;
58898;SDS011;44680;48.342;7.856;2022-09-03T07:17:16;5.55;;;3.85;;
58898;SDS011;44680;48.342;7.856;2022-09-03T07:19:41;8.73;;;4.30;;
58898;SDS011;44680;48.342;7.856;2022-09-03T07:22:07;6.03;;;4.78;;
58898;SDS011;44680;48.342;7.856;2022-09-03T07:24:34;9.18;;;5.05;;
58898;SDS011;44680;48.342;7.856;2022-09-03T07:27:01;8.90;;;5.90;;
58898;SDS011;44680;48.342;7.856;2022-09-03T07:29:27;9.02;;;5.63;;
58898;SDS011;44680;48.342;7.856;2022-09-03T07:31:52;12.38;;;5.80;;
58898;SDS011;44680;48.342;7.856;2022-09-03T07:34:18;8.05;;;6.13;;
58898;SDS011;44680;48.342;7.856;2022-09-03T07:36:44;8.15;;;5.78;;
58898;SDS011;44680;48.342;7.856;2022-09-03T07:39:11;9.18;;;5.90;;
58898;SDS011;44680;48.342;7.856;2022-09-03T07:41:38;8.77;;;5.85;;
58898;SDS011;44680;48.342;7.856;2022-09-03T07:44:07;10.02;;;5.38;;
58898;SDS011;44680;48.342;7.856;2022-09-03T07:46:33;12.82;;;5.07;;
58898;SDS011;44680;48.342;7.856;2022-09-03T07:49:00;7.10;;;4.85;;
58898;SDS011;44680;48.342;7.856;2022-09-03T07:51:27;10.63;;;5.80;;
58898;SDS011;44680;48.342;7.856;2022-09-03T07:53:58;7.40;;;5.05;;
58898;SDS011;44680;48.342;7.856;2022-09-03T07:56:26;8.55;;;5.00;;
58898;SDS011;44680;48.342;7.856;2022-09-03T07:58:52;7.85;;;4.72;;
58898;SDS011;44680;48.342;7.856;2022-09-03T08:01:19;6.45;;;3.97;;
58898;SDS011;44680;48.342;7.856;2022-09-03T08:03:46;8.10;;;5.05;;
58898;SDS011;44680;48.342;7.856;2022-09-03T08:06:14;6.55;;;4.88;;
58898;SDS011;44680;48.342;7.856;2022-09-03T08:08:40;6.47;;;4.38;;
58898;SDS011;44680;48.342;7.856;2022-09-03T08:13:35;5.78;;;3.90;;
58898;SDS011;44680;48.342;7.856;2022-09-03T08:16:04;8.32;;;4.55;;
58898;SDS011;44680;48.342;7.856;2022-09-03T08:18:31;5.88;;;4.15;;
58898;SDS011;44680;48.342;7.856;2022-09-03T08:21:11;8.75;;;4.57;;
58898;SDS011;44680;48.342;7.856;2022-09-03T08:23:39;5.63;;;4.47;;
58898;SDS011;44680;48.342;7.856;2022-09-03T08:26:06;5.47;;;4.18;;
58898;SDS011;44680;48.342;7.856;2022-09-03T08:28:32;8.25;;;4.72;;
58898;SDS011;44680;48.342;7.856;2022-09-03T08:30:58;6.70;;;4.70;;
58898;SDS011;44680;48.342;7.856;2022-09-03T08:33:35;8.23;;;4.82;;
58898;SDS011;44680;48.342;7.856;2022-09-03T08:36:07;11.43;;;5.28;;
58898;SDS011;44680;48.342;7.856;2022-09-03T08:38:34;10.95;;;5.10;;
58898;SDS011;44680;48.342;7.856;2022-09-03T08:46:03;6.60;;;5.00;;
58898;SDS011;44680;48.342;7.856;2022-09-03T08:48:29;5.78;;;4.32;;
58898;SDS011;44680;48.342;7.856;2022-09-03T08:50:55;5.68;;;5.05;;
58898;SDS011;44680;48.342;7.856;2022-09-03T08:56:11;11.07;;;4.90;;
58898;SDS011;44680;48.342;7.856;2022-09-03T08:58:38;10.63;;;4.90;;
58898;SDS011;44680;48.342;7.856;2022-09-03T09:03:40;8.82;;;5.28;;
58898;SDS011;44680;48.342;7.856;2022-09-03T09:09:02;7.30;;;4.63;;
58898;SDS011;44680;48.342;7.856;2022-09-03T09:22:40;5.25;;;4.10;;
58898;SDS011;44680;48.342;7.856;2022-09-03T09:25:12;5.78;;;3.67;;
58898;SDS011;44680;48.342;7.856;2022-09-03T09:30:40;5.95;;;4.15;;
58898;SDS011;44680;48.342;7.856;2022-09-03T09:33:06;10.32;;;4.60;;
58898;SDS011;44680;48.342;7.856;2022-09-03T09:35:31;4.63;;;4.03;;
58898;SDS011;44680;48.342;7.856;2022-09-03T09:37:57;7.13;;;4.45;;
58898;SDS011;44680;48.342;7.856;2022-09-03T09:40:34;6.80;;;4.25;;
58898;SDS011;44680;48.342;7.856;2022-09-03T09:43:14;8.18;;;4.03;;
58898;SDS011;44680;48.342;7.856;2022-09-03T09:45:41;7.35;;;4.72;;
58898;SDS011;44680;48.342;7.856;2022-09-03T09:48:12;8.02;;;4.28;;
58898;SDS011;44680;48.342;7.856;2022-09-03T09:50:41;9.30;;;4.95;;
58898;SDS011;44680;48.342;7.856;2022-09-03T09:53:08;6.65;;;4.22;;
58898;SDS011;44680;48.342;7.856;2022-09-03T09:56:18;7.72;;;5.10;;
58898;SDS011;44680;48.342;7.856;2022-09-03T09:58:33;5.00;;;4.32;;
58898;SDS011;44680;48.342;7.856;2022-09-03T10:01:10;5.93;;;4.65;;
58898;SDS011;44680;48.342;7.856;2022-09-03T10:04:39;6.57;;;4.53;;
58898;SDS011;44680;48.342;7.856;2022-09-03T10:06:37;8.20;;;5.00;;
58898;SDS011;44680;48.342;7.856;2022-09-03T10:09:25;6.78;;;4.78;;
58898;SDS011;44680;48.342;7.856;2022-09-03T10:12:14;8.10;;;4.70;;
58898;SDS011;44680;48.342;7.856;2022-09-03T10:23:36;7.15;;;4.93;;
58898;SDS011;44680;48.342;7.856;2022-09-03T10:26:23;6.28;;;4.72;;
58898;SDS011;44680;48.342;7.856;2022-09-03T10:28:56;6.18;;;4.45;;
58898;SDS011;44680;48.342;7.856;2022-09-03T10:33:55;9.52;;;4.90;;
58898;SDS011;44680;48.342;7.856;2022-09-03T10:36:27;8.18;;;4.90;;
58898;SDS011;44680;48.342;7.856;2022-09-03T10:39:09;6.75;;;4.88;;
58898;SDS011;44680;48.342;7.856;2022-09-03T10:50:19;7.60;;;2.92;;
58898;SDS011;44680;48.342;7.856;2022-09-03T10:53:05;5.10;;;2.65;;
58898;SDS011;44680;48.342;7.856;2022-09-03T10:55:40;5.70;;;3.13;;
58898;SDS011;44680;48.342;7.856;2022-09-03T11:01:06;5.32;;;2.75;;
58898;SDS011;44680;48.342;7.856;2022-09-03T11:03:40;6.38;;;2.65;;
58898;SDS011;44680;48.342;7.856;2022-09-03T11:08:51;5.25;;;2.97;;
58898;SDS011;44680;48.342;7.856;2022-09-03T11:11:49;3.20;;;2.15;;
58898;SDS011;44680;48.342;7.856;2022-09-03T11:14:22;4.15;;;1.95;;
58898;SDS011;44680;48.342;7.856;2022-09-03T11:16:57;2.20;;;1.95;;
58898;SDS011;44680;48.342;7.856;2022-09-03T11:19:46;1.90;;;1.80;;
58898;SDS011;44680;48.342;7.856;2022-09-03T11:22:15;1.67;;;1.58;;
58898;SDS011;44680;48.342;7.856;2022-09-03T11:24:42;2.20;;;2.00;;
58898;SDS011;44680;48.342;7.856;2022-09-03T11:30:04;4.50;;;1.77;;
58898;SDS011;44680;48.342;7.856;2022-09-03T11:37:52;1.75;;;1.63;;
58898;SDS011;44680;48.342;7.856;2022-09-03T11:40:19;2.28;;;2.13;;
58898;SDS011;44680;48.342;7.856;2022-09-03T11:42:46;3.05;;;1.77;;
58898;SDS011;44680;48.342;7.856;2022-09-03T11:45:23;2.45;;;1.70;;
58898;SDS011;44680;48.342;7.856;2022-09-03T11:47:59;3.60;;;1.90;;
58898;SDS011;44680;48.342;7.856;2022-09-03T11:50:26;4.78;;;1.70;;
58898;SDS011;44680;48.342;7.856;2022-09-03T11:53:05;1.80;;;1.63;;
58898;SDS011;44680;48.342;7.856;2022-09-03T11:55:55;5.50;;;1.90;;
58898;SDS011;44680;48.342;7.856;2022-09-03T11:58:29;2.03;;;1.80;;
58898;SDS011;44680;48.342;7.856;2022-09-03T12:01:11;1.80;;;1.70;;
58898;SDS011;44680;48.342;7.856;2022-09-03T12:14:54;1.90;;;1.80;;
58898;SDS011;44680;48.342;7.856;2022-09-03T12:17:47;1.70;;;1.58;;
58898;SDS011;44680;48.342;7.856;2022-09-03T12:20:36;2.25;;;1.70;;
58898;SDS011;44680;48.342;7.856;2022-09-03T12:23:01;1.13;;;1.13;;
58898;SDS011;44680;48.342;7.856;2022-09-03T12:25:27;1.38;;;1.00;;
58898;SDS011;44680;48.342;7.856;2022-09-03T12:27:53;2.78;;;1.23;;
58898;SDS011;44680;48.342;7.856;2022-09-03T12:30:20;0.90;;;0.90;;
58898;SDS011;44680;48.342;7.856;2022-09-03T12:32:47;1.27;;;1.10;;
58898;SDS011;44680;48.342;7.856;2022-09-03T12:35:23;2.50;;;1.40;;
58898;SDS011;44680;48.342;7.856;2022-09-03T12:37:50;1.63;;;1.35;;
58898;SDS011;44680;48.342;7.856;2022-09-03T12:40:17;1.63;;;1.45;;
58898;SDS011;44680;48.342;7.856;2022-09-03T12:42:45;4.50;;;1.50;;
58898;SDS011;44680;48.342;7.856;2022-09-03T12:45:10;1.10;;;1.00;;
58898;SDS011;44680;48.342;7.856;2022-09-03T12:47:39;2.25;;;1.30;;
58898;SDS011;44680;48.342;7.856;2022-09-03T12:50:22;2.67;;;1.15;;
58898;SDS011;44680;48.342;7.856;2022-09-03T12:52:52;4.32;;;1.63;;
58898;SDS011;44680;48.342;7.856;2022-09-03T12:58:05;1.98;;;1.20;;
58898;SDS011;44680;48.342;7.856;2022-09-03T13:00:32;1.10;;;1.10;;
58898;SDS011;44680;48.342;7.856;2022-09-03T13:05:35;1.35;;;1.25;;
58898;SDS011;44680;48.342;7.856;2022-09-03T13:08:05;3.30;;;1.50;;
58898;SDS011;44680;48.342;7.856;2022-09-03T13:10:40;1.65;;;1.55;;
58898;SDS011;44680;48.342;7.856;2022-09-03T13:18:59;1.38;;;1.17;;
58898;SDS011;44680;48.342;7.856;2022-09-03T13:24:55;1.23;;;1.13;;
58898;SDS011;44680;48.342;7.856;2022-09-03T13:31:05;2.15;;;1.20;;
58898;SDS011;44680;48.342;7.856;2022-09-03T13:33:40;1.55;;;1.45;;
58898;SDS011;44680;48.342;7.856;2022-09-03T13:36:09;1.13;;;1.02;;
58898;SDS011;44680;48.342;7.856;2022-09-03T13:38:55;1.02;;;1.02;;
58898;SDS011;44680;48.342;7.856;2022-09-03T13:52:17;1.05;;;1.05;;
58898;SDS011;44680;48.342;7.856;2022-09-03T13:57:25;1.02;;;1.02;;
58898;SDS011;44680;48.342;7.856;2022-09-03T14:00:21;1.13;;;1.05;;
58898;SDS011;44680;48.342;7.856;2022-09-03T14:03:07;1.90;;;1.73;;
58898;SDS011;44680;48.342;7.856;2022-09-03T14:10:52;1.40;;;1.30;;
58898;SDS011;44680;48.342;7.856;2022-09-03T14:13:47;1.27;;;1.17;;
58898;SDS011;44680;48.342;7.856;2022-09-03T14:17:22;1.35;;;1.23;;
58898;SDS011;44680;48.342;7.856;2022-09-03T14:19:38;1.05;;;1.05;;
58898;SDS011;44680;48.342;7.856;2022-09-03T14:22:16;1.23;;;1.20;;
58898;SDS011;44680;48.342;7.856;2022-09-03T14:27:24;1.40;;;1.30;;
58898;SDS011;44680;48.342;7.856;2022-09-03T14:30:01;1.83;;;1.27;;
58898;SDS011;44680;48.342;7.856;2022-09-03T14:32:36;1.80;;;1.25;;
58898;SDS011;44680;48.342;7.856;2022-09-03T14:43:45;1.20;;;1.10;;
58898;SDS011;44680;48.342;7.856;2022-09-03T14:46:36;2.38;;;1.58;;
58898;SDS011;44680;48.342;7.856;2022-09-03T14:49:36;3.17;;;1.30;;
58898;SDS011;44680;48.342;7.856;2022-09-03T15:09:02;2.22;;;2.03;;
58898;SDS011;44680;48.342;7.856;2022-09-03T15:11:42;3.35;;;1.80;;
58898;SDS011;44680;48.342;7.856;2022-09-03T15:14:13;2.45;;;2.25;;
58898;SDS011;44680;48.342;7.856;2022-09-03T15:19:26;1.98;;;1.88;;
58898;SDS011;44680;48.342;7.856;2022-09-03T15:24:57;2.05;;;1.95;;
58898;SDS011;44680;48.342;7.856;2022-09-03T15:30:10;2.80;;;2.33;;
58898;SDS011;44680;48.342;7.856;2022-09-03T15:35:17;2.50;;;2.15;;
58898;SDS011;44680;48.342;7.856;2022-09-03T15:38:03;2.05;;;1.95;;
58898;SDS011;44680;48.342;7.856;2022-09-03T15:43:14;2.43;;;2.23;;
58898;SDS011;44680;48.342;7.856;2022-09-03T15:56:33;4.95;;;2.40;;
58898;SDS011;44680;48.342;7.856;2022-09-03T16:01:49;12.93;;;5.70;;
58898;SDS011;44680;48.342;7.856;2022-09-03T16:07:20;3.30;;;2.50;;
58898;SDS011;44680;48.342;7.856;2022-09-03T16:15:20;2.70;;;2.30;;
58898;SDS011;44680;48.342;7.856;2022-09-03T16:17:51;2.38;;;1.85;;
58898;SDS011;44680;48.342;7.856;2022-09-03T16:20:42;2.08;;;1.98;;
58898;SDS011;44680;48.342;7.856;2022-09-03T16:25:47;3.50;;;1.95;;
58898;SDS011;44680;48.342;7.856;2022-09-03T16:28:28;2.25;;;2.08;;
58898;SDS011;44680;48.342;7.856;2022-09-03T16:36:21;3.53;;;1.75;;
58898;SDS011;44680;48.342;7.856;2022-09-03T16:39:23;2.58;;;2.28;;
58898;SDS011;44680;48.342;7.856;2022-09-03T16:44:44;2.13;;;2.03;;
58898;SDS011;44680;48.342;7.856;2022-09-03T16:49:51;3.22;;;2.10;;
58898;SDS011;44680;48.342;7.856;2022-09-03T16:55:10;4.05;;;2.70;;
58898;SDS011;44680;48.342;7.856;2022-09-03T16:58:12;2.47;;;2.27;;
58898;SDS011;44680;48.342;7.856;2022-09-03T17:03:38;4.28;;;2.38;;
58898;SDS011;44680;48.342;7.856;2022-09-03T17:11:47;2.40;;;2.20;;
58898;SDS011;44680;48.342;7.856;2022-09-03T17:20:36;6.00;;;3.30;;
58898;SDS011;44680;48.342;7.856;2022-09-03T17:23:33;4.10;;;3.40;;
58898;SDS011;44680;48.342;7.856;2022-09-03T17:31:53;3.80;;;3.20;;
58898;SDS011;44680;48.342;7.856;2022-09-03T17:49:00;5.95;;;4.10;;
58898;SDS011;44680;48.342;7.856;2022-09-03T17:56:55;3.67;;;3.28;;
58898;SDS011;44680;48.342;7.856;2022-09-03T18:02:01;3.72;;;3.17;;
58898;SDS011;44680;48.342;7.856;2022-09-03T18:07:17;3.20;;;2.87;;
58898;SDS011;44680;48.342;7.856;2022-09-03T18:15:25;2.80;;;2.58;;
58898;SDS011;44680;48.342;7.856;2022-09-03T18:18:01;4.72;;;2.67;;
58898;SDS011;44680;48.342;7.856;2022-09-03T18:20:31;5.97;;;2.90;;
58898;SDS011;44680;48.342;7.856;2022-09-03T18:26:15;8.63;;;3.67;;
58898;SDS011;44680;48.342;7.856;2022-09-03T18:29:05;9.80;;;3.60;;
58898;SDS011;44680;48.342;7.856;2022-09-03T18:31:54;7.22;;;3.58;;
58898;SDS011;44680;48.342;7.856;2022-09-03T18:34:38;8.30;;;3.67;;
58898;SDS011;44680;48.342;7.856;2022-09-03T18:37:24;8.85;;;3.60;;
58898;SDS011;44680;48.342;7.856;2022-09-03T18:40:15;5.50;;;2.90;;
58898;SDS011;44680;48.342;7.856;2022-09-03T18:43:07;5.05;;;3.25;;
58898;SDS011;44680;48.342;7.856;2022-09-03T18:46:30;8.07;;;3.28;;
58898;SDS011;44680;48.342;7.856;2022-09-03T18:49:26;7.50;;;3.90;;
58898;SDS011;44680;48.342;7.856;2022-09-03T18:55:37;6.53;;;3.05;;
58898;SDS011;44680;48.342;7.856;2022-09-03T18:58:36;3.28;;;2.97;;
58898;SDS011;44680;48.342;7.856;2022-09-03T19:01:32;4.65;;;3.10;;
58898;SDS011;44680;48.342;7.856;2022-09-03T19:04:20;5.65;;;3.28;;
58898;SDS011;44680;48.342;7.856;2022-09-03T19:07:11;4.18;;;3.20;;
58898;SDS011;44680;48.342;7.856;2022-09-03T19:10:03;5.15;;;3.35;;
58898;SDS011;44680;48.342;7.856;2022-09-03T19:15:56;5.63;;;3.38;;
58898;SDS011;44680;48.342;7.856;2022-09-03T19:21:57;3.40;;;3.03;;
58898;SDS011;44680;48.342;7.856;2022-09-03T19:24:49;4.72;;;3.10;;
58898;SDS011;44680;48.342;7.856;2022-09-03T19:30:30;4.68;;;2.95;;
58898;SDS011;44680;48.342;7.856;2022-09-03T19:42:50;4.30;;;3.53;;
58898;SDS011;44680;48.342;7.856;2022-09-03T19:48:46;3.95;;;3.15;;
58898;SDS011;44680;48.342;7.856;2022-09-03T19:55:23;7.82;;;3.65;;
58898;SDS011;44680;48.342;7.856;2022-09-03T19:58:09;3.72;;;3.42;;
58898;SDS011;44680;48.342;7.856;2022-09-03T20:00:55;5.25;;;3.67;;
58898;SDS011;44680;48.342;7.856;2022-09-03T20:03:39;4.57;;;3.55;;
58898;SDS011;44680;48.342;7.856;2022-09-03T20:06:24;5.20;;;3.38;;
58898;SDS011;44680;48.342;7.856;2022-09-03T20:09:08;4.63;;;3.78;;
58898;SDS011;44680;48.342;7.856;2022-09-03T20:11:53;7.35;;;3.85;;
58898;SDS011;44680;48.342;7.856;2022-09-03T20:14:21;4.53;;;3.58;;
58898;SDS011;44680;48.342;7.856;2022-09-03T20:16:53;5.03;;;3.70;;
58898;SDS011;44680;48.342;7.856;2022-09-03T20:19:35;4.80;;;3.88;;
58898;SDS011;44680;48.342;7.856;2022-09-03T20:24:53;5.70;;;3.97;;
58898;SDS011;44680;48.342;7.856;2022-09-03T20:30:21;6.80;;;3.80;;
58898;SDS011;44680;48.342;7.856;2022-09-03T20:32:50;5.22;;;3.50;;
58898;SDS011;44680;48.342;7.856;2022-09-03T20:38:20;4.55;;;3.65;;
58898;SDS011;44680;48.342;7.856;2022-09-03T20:41:12;5.28;;;3.85;;
58898;SDS011;44680;48.342;7.856;2022-09-03T20:43:49;6.63;;;3.90;;
58898;SDS011;44680;48.342;7.856;2022-09-03T20:52:25;9.15;;;4.07;;
58898;SDS011;44680;48.342;7.856;2022-09-03T20:57:41;5.03;;;3.97;;
58898;SDS011;44680;48.342;7.856;2022-09-03T21:00:16;7.22;;;3.55;;
58898;SDS011;44680;48.342;7.856;2022-09-03T21:08:21;5.68;;;3.92;;
58898;SDS011;44680;48.342;7.856;2022-09-03T21:19:17;5.57;;;4.03;;
58898;SDS011;44680;48.342;7.856;2022-09-03T21:21:49;6.55;;;3.80;;
58898;SDS011;44680;48.342;7.856;2022-09-03T21:24:33;7.78;;;3.85;;
58898;SDS011;44680;48.342;7.856;2022-09-03T21:27:13;4.13;;;3.78;;